Strona główna
METAR-TAF:

METAR-TAF

Lotnisko :

Platforma wiertnicza

K14-fa-1c, Holandia

Szerokość geograficzna: 53-16-10N, Długość geograficzna: 3-37-40E, wysokość: 28 m

Aktualna obserwacja pogody

Raport powstał 35 minut temu, godzina 00:25 UTC
Wiatr 24 kt od wschodnio-północny wschód
Temperatura 10°C
Wilgotność 62%
Ciśnienie 1023 hPa
Widzialność 10 km lub więcej

METAR: EHKV 050025Z AUTO 07024KT 9999 NSC 10/03 Q1023

czas: 03:00 (01:00 UTC)


TAF: brakujący

Obserwacja i prognoza pogody dla ponad 4000 lotnisk (raport METAR i TAF).

Dostępne stacje oznaczono żółtymi i czerwonymi punktami na mapie.

Najedź kursorem aby zobaczyć nazwę stacji.

Kliknij aby zobaczyć obserwacje i prognozy pogody.

Aby zmienić mapę: kliknij na zielony przycisk z czarnym krzyżykiem, aby powiększyć; na zielony przycisk z myślnikiem, aby pomniejszyć; na zielone strzałki, aby przejść do map sąsiednich.


METAR-TAF: